sensor_id;sensor_type;location;lat;lon;timestamp;temperature;humidity
69006;SHT31;56061;51.748;19.620;2022-12-05T00:03:47;1.31;90.06
69006;SHT31;56061;51.748;19.620;2022-12-05T00:06:17;1.32;90.06
69006;SHT31;56061;51.748;19.620;2022-12-05T00:08:44;1.34;90.04
69006;SHT31;56061;51.748;19.620;2022-12-05T00:11:15;1.34;89.99
69006;SHT31;56061;51.748;19.620;2022-12-05T00:13:46;1.33;90.00
69006;SHT31;56061;51.748;19.620;2022-12-05T00:16:16;1.33;90.01
69006;SHT31;56061;51.748;19.620;2022-12-05T00:18:46;1.33;90.00
69006;SHT31;56061;51.748;19.620;2022-12-05T00:21:14;1.32;90.00
69006;SHT31;56061;51.748;19.620;2022-12-05T00:23:46;1.31;89.99
69006;SHT31;56061;51.748;19.620;2022-12-05T00:26:14;1.29;89.86
69006;SHT31;56061;51.748;19.620;2022-12-05T00:28:41;1.26;89.94
69006;SHT31;56061;51.748;19.620;2022-12-05T00:31:13;1.28;90.03
69006;SHT31;56061;51.748;19.620;2022-12-05T00:33:43;1.32;90.09
69006;SHT31;56061;51.748;19.620;2022-12-05T00:36:11;1.34;90.02
69006;SHT31;56061;51.748;19.620;2022-12-05T00:38:51;1.36;89.94
69006;SHT31;56061;51.748;19.620;2022-12-05T00:41:19;1.35;89.91
69006;SHT31;56061;51.748;19.620;2022-12-05T00:43:49;1.36;89.91
69006;SHT31;56061;51.748;19.620;2022-12-05T00:46:18;1.36;89.91
69006;SHT31;56061;51.748;19.620;2022-12-05T00:48:48;1.33;89.82
69006;SHT31;56061;51.748;19.620;2022-12-05T00:51:17;1.27;89.73
69006;SHT31;56061;51.748;19.620;2022-12-05T00:53:47;1.23;89.80
69006;SHT31;56061;51.748;19.620;2022-12-05T00:56:16;1.23;89.82
69006;SHT31;56061;51.748;19.620;2022-12-05T00:58:49;1.25;89.89
69006;SHT31;56061;51.748;19.620;2022-12-05T01:01:29;1.28;89.90
69006;SHT31;56061;51.748;19.620;2022-12-05T01:04:00;1.31;89.87
69006;SHT31;56061;51.748;19.620;2022-12-05T01:06:35;1.33;89.81
69006;SHT31;56061;51.748;19.620;2022-12-05T01:09:02;1.34;89.72
69006;SHT31;56061;51.748;19.620;2022-12-05T01:11:31;1.33;89.71
69006;SHT31;56061;51.748;19.620;2022-12-05T01:14:06;1.32;89.77
69006;SHT31;56061;51.748;19.620;2022-12-05T01:16:34;1.31;89.78
69006;SHT31;56061;51.748;19.620;2022-12-05T01:19:07;1.28;89.67
69006;SHT31;56061;51.748;19.620;2022-12-05T01:21:38;1.24;89.63
69006;SHT31;56061;51.748;19.620;2022-12-05T01:24:04;1.22;89.61
69006;SHT31;56061;51.748;19.620;2022-12-05T01:26:31;1.20;89.60
69006;SHT31;56061;51.748;19.620;2022-12-05T01:28:57;1.19;89.63
69006;SHT31;56061;51.748;19.620;2022-12-05T01:31:28;1.19;89.68
69006;SHT31;56061;51.748;19.620;2022-12-05T01:33:59;1.19;89.63
69006;SHT31;56061;51.748;19.620;2022-12-05T01:36:29;1.21;89.71
69006;SHT31;56061;51.748;19.620;2022-12-05T01:38:57;1.23;89.72
69006;SHT31;56061;51.748;19.620;2022-12-05T01:41:34;1.25;89.72
69006;SHT31;56061;51.748;19.620;2022-12-05T01:46:38;1.25;89.61
69006;SHT31;56061;51.748;19.620;2022-12-05T01:49:22;1.23;89.59
69006;SHT31;56061;51.748;19.620;2022-12-05T01:51:57;1.20;89.58
69006;SHT31;56061;51.748;19.620;2022-12-05T01:54:30;1.21;89.63
69006;SHT31;56061;51.748;19.620;2022-12-05T01:56:58;1.22;89.63
69006;SHT31;56061;51.748;19.620;2022-12-05T01:59:30;1.26;89.70
69006;SHT31;56061;51.748;19.620;2022-12-05T02:02:01;1.29;89.66
69006;SHT31;56061;51.748;19.620;2022-12-05T02:04:30;1.30;89.57
69006;SHT31;56061;51.748;19.620;2022-12-05T02:07:03;1.31;89.53
69006;SHT31;56061;51.748;19.620;2022-12-05T02:09:29;1.31;89.56
69006;SHT31;56061;51.748;19.620;2022-12-05T02:11:57;1.27;89.47
69006;SHT31;56061;51.748;19.620;2022-12-05T02:14:30;1.20;89.44
69006;SHT31;56061;51.748;19.620;2022-12-05T02:17:22;1.18;89.57
69006;SHT31;56061;51.748;19.620;2022-12-05T02:20:54;1.14;89.56
69006;SHT31;56061;51.748;19.620;2022-12-05T02:32:31;1.22;89.65
69006;SHT31;56061;51.748;19.620;2022-12-05T02:40:55;1.14;89.60
69006;SHT31;56061;51.748;19.620;2022-12-05T02:43:41;1.10;89.72
69006;SHT31;56061;51.748;19.620;2022-12-05T02:46:22;1.09;89.79
69006;SHT31;56061;51.748;19.620;2022-12-05T02:48:56;1.08;89.80
69006;SHT31;56061;51.748;19.620;2022-12-05T02:51:28;1.08;89.80
69006;SHT31;56061;51.748;19.620;2022-12-05T02:54:07;1.10;89.84
69006;SHT31;56061;51.748;19.620;2022-12-05T02:56:44;1.12;89.90
69006;SHT31;56061;51.748;19.620;2022-12-05T02:59:12;1.16;89.79
69006;SHT31;56061;51.748;19.620;2022-12-05T03:01:46;1.13;89.74
69006;SHT31;56061;51.748;19.620;2022-12-05T03:04:15;1.14;89.87
69006;SHT31;56061;51.748;19.620;2022-12-05T03:06:50;1.17;89.85
69006;SHT31;56061;51.748;19.620;2022-12-05T03:09:27;1.15;89.75
69006;SHT31;56061;51.748;19.620;2022-12-05T03:12:07;1.14;89.81
69006;SHT31;56061;51.748;19.620;2022-12-05T03:14:46;1.12;89.87
69006;SHT31;56061;51.748;19.620;2022-12-05T03:17:41;1.10;89.89
69006;SHT31;56061;51.748;19.620;2022-12-05T03:20:24;1.08;89.89
69006;SHT31;56061;51.748;19.620;2022-12-05T03:23:31;1.07;89.95
69006;SHT31;56061;51.748;19.620;2022-12-05T03:26:02;1.08;89.94
69006;SHT31;56061;51.748;19.620;2022-12-05T03:29:10;1.09;89.90
69006;SHT31;56061;51.748;19.620;2022-12-05T03:32:02;1.12;89.90
69006;SHT31;56061;51.748;19.620;2022-12-05T03:49:14;1.08;89.90
69006;SHT31;56061;51.748;19.620;2022-12-05T03:52:09;1.05;89.84
69006;SHT31;56061;51.748;19.620;2022-12-05T03:54:42;1.01;89.87
69006;SHT31;56061;51.748;19.620;2022-12-05T03:57:19;1.00;89.91
69006;SHT31;56061;51.748;19.620;2022-12-05T04:00:04;1.00;89.97
69006;SHT31;56061;51.748;19.620;2022-12-05T04:02:38;1.04;89.93
69006;SHT31;56061;51.748;19.620;2022-12-05T04:07:59;1.07;89.91
69006;SHT31;56061;51.748;19.620;2022-12-05T04:10:38;1.12;89.94
69006;SHT31;56061;51.748;19.620;2022-12-05T04:13:26;1.14;89.82
69006;SHT31;56061;51.748;19.620;2022-12-05T04:16:07;1.12;89.80
69006;SHT31;56061;51.748;19.620;2022-12-05T04:19:00;1.10;89.87
69006;SHT31;56061;51.748;19.620;2022-12-05T04:21:36;1.08;89.82
69006;SHT31;56061;51.748;19.620;2022-12-05T04:24:11;1.05;89.82
69006;SHT31;56061;51.748;19.620;2022-12-05T04:27:07;1.05;89.89
69006;SHT31;56061;51.748;19.620;2022-12-05T04:29:55;1.05;89.85
69006;SHT31;56061;51.748;19.620;2022-12-05T04:32:42;1.07;89.88
69006;SHT31;56061;51.748;19.620;2022-12-05T04:35:19;1.12;89.96
69006;SHT31;56061;51.748;19.620;2022-12-05T04:38:02;1.17;89.96
69006;SHT31;56061;51.748;19.620;2022-12-05T04:41:01;1.19;89.87
69006;SHT31;56061;51.748;19.620;2022-12-05T04:43:32;1.20;89.80
69006;SHT31;56061;51.748;19.620;2022-12-05T04:46:04;1.19;89.84
69006;SHT31;56061;51.748;19.620;2022-12-05T04:48:36;1.21;89.86
69006;SHT31;56061;51.748;19.620;2022-12-05T04:51:07;1.18;89.79
69006;SHT31;56061;51.748;19.620;2022-12-05T04:53:41;1.18;89.89
69006;SHT31;56061;51.748;19.620;2022-12-05T04:56:10;1.20;89.89
69006;SHT31;56061;51.748;19.620;2022-12-05T04:58:42;1.22;89.81
69006;SHT31;56061;51.748;19.620;2022-12-05T05:01:22;1.22;89.72
69006;SHT31;56061;51.748;19.620;2022-12-05T05:04:01;1.24;89.70
69006;SHT31;56061;51.748;19.620;2022-12-05T05:06:44;1.27;89.75
69006;SHT31;56061;51.748;19.620;2022-12-05T05:09:10;1.31;89.78
69006;SHT31;56061;51.748;19.620;2022-12-05T05:11:37;1.29;89.58
69006;SHT31;56061;51.748;19.620;2022-12-05T05:14:04;1.28;89.66
69006;SHT31;56061;51.748;19.620;2022-12-05T05:16:35;1.27;89.70
69006;SHT31;56061;51.748;19.620;2022-12-05T05:19:04;1.27;89.70
69006;SHT31;56061;51.748;19.620;2022-12-05T05:21:34;1.25;89.66
69006;SHT31;56061;51.748;19.620;2022-12-05T05:24:03;1.24;89.73
69006;SHT31;56061;51.748;19.620;2022-12-05T05:26:33;1.23;89.70
69006;SHT31;56061;51.748;19.620;2022-12-05T05:29:02;1.24;89.72
69006;SHT31;56061;51.748;19.620;2022-12-05T05:31:29;1.23;89.66
69006;SHT31;56061;51.748;19.620;2022-12-05T05:33:56;1.23;89.70
69006;SHT31;56061;51.748;19.620;2022-12-05T05:36:24;1.22;89.70
69006;SHT31;56061;51.748;19.620;2022-12-05T05:38:53;1.25;89.77
69006;SHT31;56061;51.748;19.620;2022-12-05T05:41:24;1.25;89.80
69006;SHT31;56061;51.748;19.620;2022-12-05T05:43:55;1.25;89.79
69006;SHT31;56061;51.748;19.620;2022-12-05T05:46:23;1.24;89.78
69006;SHT31;56061;51.748;19.620;2022-12-05T05:48:53;1.21;89.82
69006;SHT31;56061;51.748;19.620;2022-12-05T05:51:21;1.20;89.87
69006;SHT31;56061;51.748;19.620;2022-12-05T05:53:50;1.17;89.91
69006;SHT31;56061;51.748;19.620;2022-12-05T05:56:17;1.14;89.79
69006;SHT31;56061;51.748;19.620;2022-12-05T05:58:47;1.09;89.80
69006;SHT31;56061;51.748;19.620;2022-12-05T06:01:24;1.09;89.91
69006;SHT31;56061;51.748;19.620;2022-12-05T06:03:52;1.12;90.00
69006;SHT31;56061;51.748;19.620;2022-12-05T06:06:19;1.13;90.01
69006;SHT31;56061;51.748;19.620;2022-12-05T06:08:47;1.11;89.98
69006;SHT31;56061;51.748;19.620;2022-12-05T06:11:17;1.14;90.09
69006;SHT31;56061;51.748;19.620;2022-12-05T06:13:54;1.16;90.11
69006;SHT31;56061;51.748;19.620;2022-12-05T06:16:23;1.17;90.17
69006;SHT31;56061;51.748;19.620;2022-12-05T06:18:50;1.20;90.18
69006;SHT31;56061;51.748;19.620;2022-12-05T06:21:18;1.18;90.04
69006;SHT31;56061;51.748;19.620;2022-12-05T06:23:45;1.16;90.07
69006;SHT31;56061;51.748;19.620;2022-12-05T06:26:13;1.12;90.13
69006;SHT31;56061;51.748;19.620;2022-12-05T06:28:43;1.04;90.07
69006;SHT31;56061;51.748;19.620;2022-12-05T06:31:11;0.99;90.21
69006;SHT31;56061;51.748;19.620;2022-12-05T06:33:40;0.99;90.40
69006;SHT31;56061;51.748;19.620;2022-12-05T06:36:12;0.99;90.43
69006;SHT31;56061;51.748;19.620;2022-12-05T06:38:42;0.98;90.51
69006;SHT31;56061;51.748;19.620;2022-12-05T06:41:13;1.00;90.54
69006;SHT31;56061;51.748;19.620;2022-12-05T06:43:43;1.04;90.62
69006;SHT31;56061;51.748;19.620;2022-12-05T06:46:11;1.09;90.60
69006;SHT31;56061;51.748;19.620;2022-12-05T06:48:40;1.12;90.52
69006;SHT31;56061;51.748;19.620;2022-12-05T06:51:10;1.13;90.54
69006;SHT31;56061;51.748;19.620;2022-12-05T06:53:40;1.13;90.47
69006;SHT31;56061;51.748;19.620;2022-12-05T06:56:12;1.14;90.50
69006;SHT31;56061;51.748;19.620;2022-12-05T06:58:42;1.15;90.47
69006;SHT31;56061;51.748;19.620;2022-12-05T07:01:12;1.12;90.39
69006;SHT31;56061;51.748;19.620;2022-12-05T07:04:00;1.12;90.43
69006;SHT31;56061;51.748;19.620;2022-12-05T07:06:28;1.10;90.36
69006;SHT31;56061;51.748;19.620;2022-12-05T07:08:54;1.13;90.56
69006;SHT31;56061;51.748;19.620;2022-12-05T07:11:21;1.15;90.58
69006;SHT31;56061;51.748;19.620;2022-12-05T07:13:48;1.16;90.53
69006;SHT31;56061;51.748;19.620;2022-12-05T07:16:14;1.19;90.54
69006;SHT31;56061;51.748;19.620;2022-12-05T07:18:41;1.22;90.60
69006;SHT31;56061;51.748;19.620;2022-12-05T07:21:09;1.28;90.64
69006;SHT31;56061;51.748;19.620;2022-12-05T07:23:40;1.34;90.59
69006;SHT31;56061;51.748;19.620;2022-12-05T07:26:11;1.37;90.36
69006;SHT31;56061;51.748;19.620;2022-12-05T07:28:40;1.35;90.29
69006;SHT31;56061;51.748;19.620;2022-12-05T07:31:08;1.37;90.39
69006;SHT31;56061;51.748;19.620;2022-12-05T07:33:39;1.38;90.40
69006;SHT31;56061;51.748;19.620;2022-12-05T07:36:06;1.40;90.33
69006;SHT31;56061;51.748;19.620;2022-12-05T07:38:36;1.38;90.19
69006;SHT31;56061;51.748;19.620;2022-12-05T07:41:07;1.36;90.14
69006;SHT31;56061;51.748;19.620;2022-12-05T07:43:51;1.40;90.34
69006;SHT31;56061;51.748;19.620;2022-12-05T07:46:20;1.44;90.27
69006;SHT31;56061;51.748;19.620;2022-12-05T07:48:49;1.46;90.17
69006;SHT31;56061;51.748;19.620;2022-12-05T07:51:16;1.44;90.09
69006;SHT31;56061;51.748;19.620;2022-12-05T07:53:43;1.46;90.15
69006;SHT31;56061;51.748;19.620;2022-12-05T07:56:12;1.51;90.30
69006;SHT31;56061;51.748;19.620;2022-12-05T07:58:42;1.54;90.26
69006;SHT31;56061;51.748;19.620;2022-12-05T08:01:15;1.57;90.17
69006;SHT31;56061;51.748;19.620;2022-12-05T08:03:48;1.58;90.12
69006;SHT31;56061;51.748;19.620;2022-12-05T08:06:18;1.57;90.02
69006;SHT31;56061;51.748;19.620;2022-12-05T08:08:48;1.56;90.05
69006;SHT31;56061;51.748;19.620;2022-12-05T08:11:17;1.59;90.11
69006;SHT31;56061;51.748;19.620;2022-12-05T08:13:49;1.63;90.11
69006;SHT31;56061;51.748;19.620;2022-12-05T08:16:18;1.68;90.00
69006;SHT31;56061;51.748;19.620;2022-12-05T08:19:00;1.71;89.94
69006;SHT31;56061;51.748;19.620;2022-12-05T08:21:30;1.74;89.83
69006;SHT31;56061;51.748;19.620;2022-12-05T08:23:57;1.78;89.91
69006;SHT31;56061;51.748;19.620;2022-12-05T08:26:25;1.82;89.85
69006;SHT31;56061;51.748;19.620;2022-12-05T08:28:56;1.84;89.85
69006;SHT31;56061;51.748;19.620;2022-12-05T08:31:30;1.83;89.65
69006;SHT31;56061;51.748;19.620;2022-12-05T08:33:59;1.84;89.70
69006;SHT31;56061;51.748;19.620;2022-12-05T08:36:26;1.86;89.62
69006;SHT31;56061;51.748;19.620;2022-12-05T08:39:02;1.90;89.67
69006;SHT31;56061;51.748;19.620;2022-12-05T08:41:32;1.99;89.76
69006;SHT31;56061;51.748;19.620;2022-12-05T08:43:59;2.06;89.71
69006;SHT31;56061;51.748;19.620;2022-12-05T08:46:31;2.07;89.52
69006;SHT31;56061;51.748;19.620;2022-12-05T08:49:01;2.06;89.44
69006;SHT31;56061;51.748;19.620;2022-12-05T08:51:30;2.05;89.44
69006;SHT31;56061;51.748;19.620;2022-12-05T08:53:57;2.07;89.49
69006;SHT31;56061;51.748;19.620;2022-12-05T08:56:23;2.10;89.52
69006;SHT31;56061;51.748;19.620;2022-12-05T08:58:53;2.13;89.44
69006;SHT31;56061;51.748;19.620;2022-12-05T09:01:30;2.14;89.28
69006;SHT31;56061;51.748;19.620;2022-12-05T09:03:58;2.17;89.32
69006;SHT31;56061;51.748;19.620;2022-12-05T09:06:26;2.21;89.31
69006;SHT31;56061;51.748;19.620;2022-12-05T09:08:55;2.25;89.28
69006;SHT31;56061;51.748;19.620;2022-12-05T09:11:29;2.30;89.29
69006;SHT31;56061;51.748;19.620;2022-12-05T09:13:59;2.31;89.21
69006;SHT31;56061;51.748;19.620;2022-12-05T09:16:28;2.32;89.09
69006;SHT31;56061;51.748;19.620;2022-12-05T09:19:03;2.31;89.08
69006;SHT31;56061;51.748;19.620;2022-12-05T09:21:39;2.30;89.09
69006;SHT31;56061;51.748;19.620;2022-12-05T09:24:06;2.29;89.02
69006;SHT31;56061;51.748;19.620;2022-12-05T09:26:33;2.27;89.00
69006;SHT31;56061;51.748;19.620;2022-12-05T09:29:00;2.27;89.05
69006;SHT31;56061;51.748;19.620;2022-12-05T09:31:28;2.27;89.02
69006;SHT31;56061;51.748;19.620;2022-12-05T09:33:56;2.27;88.93
69006;SHT31;56061;51.748;19.620;2022-12-05T09:36:24;2.28;89.03
69006;SHT31;56061;51.748;19.620;2022-12-05T09:38:54;2.34;89.14
69006;SHT31;56061;51.748;19.620;2022-12-05T09:44:52;2.41;88.95
69006;SHT31;56061;51.748;19.620;2022-12-05T09:50:25;2.40;88.80
69006;SHT31;56061;51.748;19.620;2022-12-05T09:53:04;2.41;88.85
69006;SHT31;56061;51.748;19.620;2022-12-05T09:55:41;2.44;88.91
69006;SHT31;56061;51.748;19.620;2022-12-05T10:00:49;2.54;88.79
69006;SHT31;56061;51.748;19.620;2022-12-05T10:10:20;2.59;88.71
69006;SHT31;56061;51.748;19.620;2022-12-05T10:16:17;2.58;88.61
69006;SHT31;56061;51.748;19.620;2022-12-05T10:19:10;2.56;88.54
69006;SHT31;56061;51.748;19.620;2022-12-05T10:21:55;2.56;88.60
69006;SHT31;56061;51.748;19.620;2022-12-05T10:24:47;2.58;88.61
69006;SHT31;56061;51.748;19.620;2022-12-05T10:27:35;2.62;88.55
69006;SHT31;56061;51.748;19.620;2022-12-05T10:30:11;2.62;88.45
69006;SHT31;56061;51.748;19.620;2022-12-05T10:32:44;2.63;88.50
69006;SHT31;56061;51.748;19.620;2022-12-05T10:35:21;2.65;88.49
69006;SHT31;56061;51.748;19.620;2022-12-05T10:38:06;2.68;88.50
69006;SHT31;56061;51.748;19.620;2022-12-05T10:40:54;2.74;88.60
69006;SHT31;56061;51.748;19.620;2022-12-05T10:43:27;2.77;88.50
69006;SHT31;56061;51.748;19.620;2022-12-05T10:45:58;2.80;88.38
69006;SHT31;56061;51.748;19.620;2022-12-05T10:48:27;2.84;88.40
69006;SHT31;56061;51.748;19.620;2022-12-05T10:50:57;2.90;88.38
69006;SHT31;56061;51.748;19.620;2022-12-05T10:53:25;2.91;88.25
69006;SHT31;56061;51.748;19.620;2022-12-05T10:56:35;2.91;88.30
69006;SHT31;56061;51.748;19.620;2022-12-05T10:59:45;2.90;88.22
69006;SHT31;56061;51.748;19.620;2022-12-05T11:02:25;2.87;88.17
69006;SHT31;56061;51.748;19.620;2022-12-05T11:04:56;2.80;88.03
69006;SHT31;56061;51.748;19.620;2022-12-05T11:07:32;2.73;88.05
69006;SHT31;56061;51.748;19.620;2022-12-05T11:10:23;2.71;88.24
69006;SHT31;56061;51.748;19.620;2022-12-05T11:12:58;2.73;88.30
69006;SHT31;56061;51.748;19.620;2022-12-05T11:15:27;2.77;88.27
69006;SHT31;56061;51.748;19.620;2022-12-05T11:17:58;2.79;88.30
69006;SHT31;56061;51.748;19.620;2022-12-05T11:20:44;2.81;88.31
69006;SHT31;56061;51.748;19.620;2022-12-05T11:23:30;2.81;88.27
69006;SHT31;56061;51.748;19.620;2022-12-05T11:25:57;2.82;88.35
69006;SHT31;56061;51.748;19.620;2022-12-05T11:28:32;2.78;88.18
69006;SHT31;56061;51.748;19.620;2022-12-05T11:33:42;2.76;88.32
69006;SHT31;56061;51.748;19.620;2022-12-05T11:38:44;2.82;88.38
69006;SHT31;56061;51.748;19.620;2022-12-05T11:41:16;2.85;88.38
69006;SHT31;56061;51.748;19.620;2022-12-05T11:47:20;2.87;88.35
69006;SHT31;56061;51.748;19.620;2022-12-05T11:55:45;2.85;88.23
69006;SHT31;56061;51.748;19.620;2022-12-05T11:58:28;2.82;88.14
69006;SHT31;56061;51.748;19.620;2022-12-05T12:04:37;2.80;88.24
69006;SHT31;56061;51.748;19.620;2022-12-05T12:07:52;2.82;88.42
69006;SHT31;56061;51.748;19.620;2022-12-05T12:10:34;2.86;88.33
69006;SHT31;56061;51.748;19.620;2022-12-05T12:13:47;2.92;88.57
69006;SHT31;56061;51.748;19.620;2022-12-05T12:16:30;2.96;88.33
69006;SHT31;56061;51.748;19.620;2022-12-05T12:25:38;3.07;88.26
69006;SHT31;56061;51.748;19.620;2022-12-05T12:28:24;3.05;87.90
69006;SHT31;56061;51.748;19.620;2022-12-05T12:37:19;3.03;88.09
69006;SHT31;56061;51.748;19.620;2022-12-05T12:40:02;3.01;88.14
69006;SHT31;56061;51.748;19.620;2022-12-05T12:42:59;3.03;88.27
69006;SHT31;56061;51.748;19.620;2022-12-05T12:51:51;2.91;88.20
69006;SHT31;56061;51.748;19.620;2022-12-05T13:00:30;2.96;88.20
69006;SHT31;56061;51.748;19.620;2022-12-05T13:03:26;2.99;88.22
69006;SHT31;56061;51.748;19.620;2022-12-05T13:06:17;3.00;88.30
69006;SHT31;56061;51.748;19.620;2022-12-05T13:11:57;2.99;88.29
69006;SHT31;56061;51.748;19.620;2022-12-05T13:14:30;3.00;88.31
69006;SHT31;56061;51.748;19.620;2022-12-05T13:17:01;2.99;88.23
69006;SHT31;56061;51.748;19.620;2022-12-05T13:19:36;2.99;88.23
69006;SHT31;56061;51.748;19.620;2022-12-05T13:22:15;2.99;88.26
69006;SHT31;56061;51.748;19.620;2022-12-05T13:24:46;3.00;88.22
69006;SHT31;56061;51.748;19.620;2022-12-05T13:27:19;3.01;88.26
69006;SHT31;56061;51.748;19.620;2022-12-05T13:29:50;3.03;88.16
69006;SHT31;56061;51.748;19.620;2022-12-05T13:32:37;3.06;88.22
69006;SHT31;56061;51.748;19.620;2022-12-05T13:35:09;3.04;88.04
69006;SHT31;56061;51.748;19.620;2022-12-05T13:38:21;3.06;88.21
69006;SHT31;56061;51.748;19.620;2022-12-05T13:41:18;3.07;88.21
69006;SHT31;56061;51.748;19.620;2022-12-05T13:44:03;3.02;88.04
69006;SHT31;56061;51.748;19.620;2022-12-05T13:46:38;3.00;88.10
69006;SHT31;56061;51.748;19.620;2022-12-05T13:49:19;2.96;88.12
69006;SHT31;56061;51.748;19.620;2022-12-05T13:52:07;2.93;88.13
69006;SHT31;56061;51.748;19.620;2022-12-05T13:54:42;2.89;88.08
69006;SHT31;56061;51.748;19.620;2022-12-05T14:15:41;2.93;88.39
69006;SHT31;56061;51.748;19.620;2022-12-05T14:21:21;2.91;88.35
69006;SHT31;56061;51.748;19.620;2022-12-05T14:27:05;2.97;88.38
69006;SHT31;56061;51.748;19.620;2022-12-05T14:29:50;2.99;88.30
69006;SHT31;56061;51.748;19.620;2022-12-05T14:32:38;3.01;88.35
69006;SHT31;56061;51.748;19.620;2022-12-05T14:38:06;2.99;88.30
69006;SHT31;56061;51.748;19.620;2022-12-05T14:40:54;2.98;88.32
69006;SHT31;56061;51.748;19.620;2022-12-05T14:43:35;2.96;88.31
69006;SHT31;56061;51.748;19.620;2022-12-05T14:46:05;2.94;88.32
69006;SHT31;56061;51.748;19.620;2022-12-05T14:48:41;2.96;88.36
69006;SHT31;56061;51.748;19.620;2022-12-05T14:53:55;2.98;88.31
69006;SHT31;56061;51.748;19.620;2022-12-05T14:56:39;2.97;88.26
69006;SHT31;56061;51.748;19.620;2022-12-05T14:59:16;2.95;88.28
69006;SHT31;56061;51.748;19.620;2022-12-05T15:01:59;2.95;88.41
69006;SHT31;56061;51.748;19.620;2022-12-05T15:07:15;2.93;88.40
69006;SHT31;56061;51.748;19.620;2022-12-05T15:12:42;2.88;88.43
69006;SHT31;56061;51.748;19.620;2022-12-05T15:15:36;2.88;88.46
69006;SHT31;56061;51.748;19.620;2022-12-05T15:20:53;2.89;88.46
69006;SHT31;56061;51.748;19.620;2022-12-05T15:23:54;2.95;88.60
69006;SHT31;56061;51.748;19.620;2022-12-05T15:31:52;2.99;88.31
69006;SHT31;56061;51.748;19.620;2022-12-05T15:34:36;2.98;88.40
69006;SHT31;56061;51.748;19.620;2022-12-05T15:37:19;2.97;88.40
69006;SHT31;56061;51.748;19.620;2022-12-05T15:39:58;2.94;88.48
69006;SHT31;56061;51.748;19.620;2022-12-05T15:42:26;2.92;88.41
69006;SHT31;56061;51.748;19.620;2022-12-05T15:45:18;2.92;88.47
69006;SHT31;56061;51.748;19.620;2022-12-05T15:47:47;2.94;88.52
69006;SHT31;56061;51.748;19.620;2022-12-05T15:50:35;2.99;88.53
69006;SHT31;56061;51.748;19.620;2022-12-05T15:53:16;3.02;88.51
69006;SHT31;56061;51.748;19.620;2022-12-05T15:58:51;3.07;88.45
69006;SHT31;56061;51.748;19.620;2022-12-05T16:01:27;3.05;88.41
69006;SHT31;56061;51.748;19.620;2022-12-05T16:06:34;3.05;88.42
69006;SHT31;56061;51.748;19.620;2022-12-05T16:09:07;3.04;88.43
69006;SHT31;56061;51.748;19.620;2022-12-05T16:11:49;3.05;88.43
69006;SHT31;56061;51.748;19.620;2022-12-05T16:14:28;3.06;88.39
69006;SHT31;56061;51.748;19.620;2022-12-05T16:17:22;3.08;88.40
69006;SHT31;56061;51.748;19.620;2022-12-05T16:19:49;3.11;88.45
69006;SHT31;56061;51.748;19.620;2022-12-05T16:22:18;3.14;88.45
69006;SHT31;56061;51.748;19.620;2022-12-05T16:24:58;3.14;88.32
69006;SHT31;56061;51.748;19.620;2022-12-05T16:27:36;3.13;88.32
69006;SHT31;56061;51.748;19.620;2022-12-05T16:30:20;3.13;88.39
69006;SHT31;56061;51.748;19.620;2022-12-05T16:32:49;3.12;88.34
69006;SHT31;56061;51.748;19.620;2022-12-05T16:38:19;3.07;88.39
69006;SHT31;56061;51.748;19.620;2022-12-05T16:40:57;3.09;88.44
69006;SHT31;56061;51.748;19.620;2022-12-05T16:45:58;3.13;88.36
69006;SHT31;56061;51.748;19.620;2022-12-05T16:48:35;3.16;88.38
69006;SHT31;56061;51.748;19.620;2022-12-05T16:51:23;3.18;88.37
69006;SHT31;56061;51.748;19.620;2022-12-05T16:53:52;3.18;88.30
69006;SHT31;56061;51.748;19.620;2022-12-05T16:56:21;3.17;88.34
69006;SHT31;56061;51.748;19.620;2022-12-05T16:58:54;3.15;88.29
69006;SHT31;56061;51.748;19.620;2022-12-05T17:01:23;3.11;88.29
69006;SHT31;56061;51.748;19.620;2022-12-05T17:03:52;3.09;88.31
69006;SHT31;56061;51.748;19.620;2022-12-05T17:06:22;3.09;88.41
69006;SHT31;56061;51.748;19.620;2022-12-05T17:08:51;3.10;88.41
69006;SHT31;56061;51.748;19.620;2022-12-05T17:11:23;3.13;88.49
69006;SHT31;56061;51.748;19.620;2022-12-05T17:13:54;3.15;88.40
69006;SHT31;56061;51.748;19.620;2022-12-05T17:16:23;3.18;88.45
69006;SHT31;56061;51.748;19.620;2022-12-05T17:18:51;3.20;88.40
69006;SHT31;56061;51.748;19.620;2022-12-05T17:21:19;3.21;88.36
69006;SHT31;56061;51.748;19.620;2022-12-05T17:23:50;3.22;88.37
69006;SHT31;56061;51.748;19.620;2022-12-05T17:26:18;3.23;88.35
69006;SHT31;56061;51.748;19.620;2022-12-05T17:28:46;3.22;88.36
69006;SHT31;56061;51.748;19.620;2022-12-05T17:31:14;3.20;88.30
69006;SHT31;56061;51.748;19.620;2022-12-05T17:33:44;3.17;88.32
69006;SHT31;56061;51.748;19.620;2022-12-05T17:36:12;3.17;88.40
69006;SHT31;56061;51.748;19.620;2022-12-05T17:38:40;3.18;88.40
69006;SHT31;56061;51.748;19.620;2022-12-05T17:41:06;3.21;88.38
69006;SHT31;56061;51.748;19.620;2022-12-05T17:43:40;3.23;88.35
69006;SHT31;56061;51.748;19.620;2022-12-05T17:46:07;3.24;88.33
69006;SHT31;56061;51.748;19.620;2022-12-05T17:48:34;3.27;88.40
69006;SHT31;56061;51.748;19.620;2022-12-05T17:51:01;3.29;88.40
69006;SHT31;56061;51.748;19.620;2022-12-05T17:53:29;3.30;88.39
69006;SHT31;56061;51.748;19.620;2022-12-05T17:55:55;3.31;88.40
69006;SHT31;56061;51.748;19.620;2022-12-05T17:58:22;3.32;88.36
69006;SHT31;56061;51.748;19.620;2022-12-05T18:00:48;3.30;88.24
69006;SHT31;56061;51.748;19.620;2022-12-05T18:03:16;3.32;88.32
69006;SHT31;56061;51.748;19.620;2022-12-05T18:05:43;3.34;88.30
69006;SHT31;56061;51.748;19.620;2022-12-05T18:08:11;3.36;88.28
69006;SHT31;56061;51.748;19.620;2022-12-05T18:10:39;3.37;88.29
69006;SHT31;56061;51.748;19.620;2022-12-05T18:13:11;3.39;88.28
69006;SHT31;56061;51.748;19.620;2022-12-05T18:15:38;3.39;88.22
69006;SHT31;56061;51.748;19.620;2022-12-05T18:18:12;3.37;88.21
69006;SHT31;56061;51.748;19.620;2022-12-05T18:20:42;3.37;88.29
69006;SHT31;56061;51.748;19.620;2022-12-05T18:23:08;3.38;88.26
69006;SHT31;56061;51.748;19.620;2022-12-05T18:25:35;3.41;88.30
69006;SHT31;56061;51.748;19.620;2022-12-05T18:28:02;3.44;88.28
69006;SHT31;56061;51.748;19.620;2022-12-05T18:30:28;3.47;88.20
69006;SHT31;56061;51.748;19.620;2022-12-05T18:32:55;3.50;88.28
69006;SHT31;56061;51.748;19.620;2022-12-05T18:35:21;3.56;88.23
69006;SHT31;56061;51.748;19.620;2022-12-05T18:38:06;3.58;88.17
69006;SHT31;56061;51.748;19.620;2022-12-05T18:40:34;3.59;88.09
69006;SHT31;56061;51.748;19.620;2022-12-05T18:43:01;3.58;88.08
69006;SHT31;56061;51.748;19.620;2022-12-05T18:45:28;3.57;88.10
69006;SHT31;56061;51.748;19.620;2022-12-05T18:47:55;3.56;88.09
69006;SHT31;56061;51.748;19.620;2022-12-05T18:50:41;3.55;88.03
69006;SHT31;56061;51.748;19.620;2022-12-05T18:53:08;3.53;87.99